Terminal Aerodrome Forecast
Issued by NWS

Current Version | Previous Version | Text Only | Print | Product List | Glossary On
Versions: 1 2 3 4 5 6 7 8 9 10 11 12 13 14 15 16 17 18
494
FTUS41 KGYX 010913 AAA
TAFLEB
TAF AMD
KLEB 010913Z 0109/0206 05004KT P6SM BKN250
     FM011300 15004KT P6SM OVC040
     FM011600 15005KT 6SM -SHRA BR OVC025
     FM020100 VRB03KT 5SM BR OVC015=

USA.gov is the U.S. government's official web portal to all federal, state and local government web resources and services.